Time;durP1;ratioP1;P1;durP2;ratioP2;P2;SDS_P1;SDS_P2;PMS_P1;PMS_P2;Temp;Humidity;BMP_temperature;BMP_pressure;BME280_temperature;BME280_humidity;BME280_pressure;Samples;Min_cycle;Max_cycle;Signal;HPM_P1;HPM_P2
2023/12/22 00:01:29;;;;;;;0.50;0.30;;;3.20;99.90;;;;;;5035490;28;20033;-83
2023/12/22 00:03:55;;;;;;;0.10;0.10;;;3.20;99.90;;;;;;5050326;28;20036;-83
2023/12/22 00:06:21;;;;;;;0.63;0.15;;;3.10;99.90;;;;;;5059932;28;20086;-83
2023/12/22 00:08:46;;;;;;;0.43;0.30;;;3.20;99.90;;;;;;5053876;28;20029;-83
2023/12/22 00:11:12;;;;;;;0.95;0.60;;;3.20;99.90;;;;;;5019845;28;20393;-82
2023/12/22 00:13:38;;;;;;;0.30;0.28;;;3.20;99.90;;;;;;5020131;28;20107;-83
2023/12/22 00:16:04;;;;;;;0.40;0.30;;;3.20;99.90;;;;;;5053875;28;20040;-83
2023/12/22 00:18:30;;;;;;;0.15;0.15;;;3.20;99.90;;;;;;5053567;28;20025;-82
2023/12/22 00:20:56;;;;;;;0.55;0.20;;;3.20;99.90;;;;;;5053118;28;20057;-83
2023/12/22 00:23:22;;;;;;;0.25;0.20;;;3.20;99.90;;;;;;5036383;28;20051;-83
2023/12/22 00:25:47;;;;;;;0.17;0.10;;;3.20;99.90;;;;;;5035663;28;20029;-82
2023/12/22 00:28:13;;;;;;;0.52;0.30;;;3.20;99.90;;;;;;5052333;28;20033;-82
2023/12/22 00:30:39;;;;;;;0.17;0.10;;;3.20;99.90;;;;;;5052847;28;20033;-83
2023/12/22 00:33:04;;;;;;;1.27;0.20;;;3.20;99.90;;;;;;5054046;28;20485;-83
2023/12/22 00:35:30;;;;;;;0.20;0.20;;;3.20;99.90;;;;;;5052581;28;20079;-83
2023/12/22 00:37:56;;;;;;;0.60;0.20;;;3.20;99.90;;;;;;5018894;28;20446;-83
2023/12/22 00:40:22;;;;;;;0.75;0.20;;;3.20;99.90;;;;;;5034661;28;20116;-83
2023/12/22 00:42:47;;;;;;;0.85;0.40;;;3.20;99.90;;;;;;5035809;28;20033;-83
2023/12/22 00:45:13;;;;;;;0.30;0.20;;;3.20;99.90;;;;;;5035720;28;20037;-84
2023/12/22 00:47:38;;;;;;;0.45;0.30;;;3.20;99.90;;;;;;5052011;28;20493;-83
2023/12/22 00:50:05;;;;;;;0.38;0.22;;;3.20;99.90;;;;;;5052892;28;20033;-83
2023/12/22 00:52:31;;;;;;;1.35;0.28;;;3.20;99.90;;;;;;5052166;28;20025;-84
2023/12/22 00:54:57;;;;;;;0.32;0.22;;;3.20;99.90;;;;;;5035363;28;20025;-84
2023/12/22 00:57:23;;;;;;;0.55;0.30;;;3.20;99.90;;;;;;5051726;28;20066;-84
2023/12/22 00:59:49;;;;;;;0.52;0.30;;;3.20;99.90;;;;;;5051671;28;20025;-84
2023/12/22 01:02:16;;;;;;;0.50;0.30;;;3.30;99.90;;;;;;5052077;28;20056;-84
2023/12/22 01:04:41;;;;;;;2.05;0.30;;;3.40;99.90;;;;;;5053177;28;20119;-83
2023/12/22 01:07:11;;;;;;;1.48;0.30;;;3.50;99.90;;;;;;5052486;28;20057;-83
2023/12/22 01:09:39;;;;;;;0.45;0.30;;;3.40;99.90;;;;;;5035573;28;20036;-84
2023/12/22 01:12:06;;;;;;;1.55;0.30;;;3.40;99.90;;;;;;5035687;28;20064;-84
2023/12/22 01:14:32;;;;;;;1.77;0.70;;;3.30;99.90;;;;;;5053730;28;20053;-84
2023/12/22 01:16:59;;;;;;;0.95;0.47;;;3.20;99.90;;;;;;5051898;28;20053;-84
2023/12/22 01:19:25;;;;;;;0.65;0.40;;;3.20;99.90;;;;;;5031764;28;20030;-83
2023/12/22 01:21:51;;;;;;;1.60;0.40;;;3.20;99.90;;;;;;5033533;28;20028;-83
2023/12/22 01:24:17;;;;;;;0.73;0.20;;;3.20;99.90;;;;;;5058037;28;20041;-83
2023/12/22 01:26:42;;;;;;;1.55;0.40;;;3.30;99.90;;;;;;5035282;28;20033;-83
2023/12/22 01:29:08;;;;;;;0.20;0.20;;;3.30;99.90;;;;;;5051297;28;20393;-83
2023/12/22 01:31:34;;;;;;;0.43;0.17;;;3.30;99.90;;;;;;5052377;28;20033;-82
2023/12/22 01:34:00;;;;;;;1.40;0.50;;;3.10;99.90;;;;;;5052585;28;20025;-82
2023/12/22 01:36:25;;;;;;;0.47;0.10;;;3.00;99.90;;;;;;5052320;28;20485;-82
2023/12/22 01:38:51;;;;;;;3.03;0.25;;;2.80;99.90;;;;;;5070328;28;20051;-82
2023/12/22 01:41:17;;;;;;;0.20;0.20;;;2.70;99.90;;;;;;5056002;28;20036;-82
2023/12/22 01:43:42;;;;;;;1.00;0.20;;;2.60;99.90;;;;;;5056300;28;20033;-82
2023/12/22 01:46:10;;;;;;;0.20;0.20;;;2.50;99.90;;;;;;5040201;28;20115;-82
2023/12/22 01:48:36;;;;;;;0.10;0.10;;;2.40;99.90;;;;;;5052902;28;20116;-82
2023/12/22 01:51:02;;;;;;;0.10;0.10;;;2.30;99.90;;;;;;5037956;28;20115;-82
2023/12/22 01:53:29;;;;;;;0.30;0.20;;;2.30;99.90;;;;;;5039162;28;20632;-82
2023/12/22 01:55:56;;;;;;;0.10;0.10;;;2.20;99.90;;;;;;5056078;28;20041;-81
2023/12/22 01:58:23;;;;;;;0.10;0.10;;;2.10;99.90;;;;;;5057284;28;20083;-81
2023/12/22 02:00:49;;;;;;;0.20;0.20;;;2.20;99.90;;;;;;5057614;28;20025;-82
2023/12/22 02:03:16;;;;;;;0.10;0.10;;;2.30;99.90;;;;;;5039915;28;20086;-82
2023/12/22 02:05:43;;;;;;;0.30;0.20;;;2.30;99.90;;;;;;5057550;28;20025;-81
2023/12/22 02:08:09;;;;;;;0.13;0.13;;;2.40;99.90;;;;;;5055402;28;20080;-81
2023/12/22 02:10:36;;;;;;;0.10;0.10;;;2.50;99.90;;;;;;5034896;28;20411;-80
2023/12/22 02:13:02;;;;;;;0.10;0.10;;;2.50;99.90;;;;;;5053024;28;20371;-81
2023/12/22 02:15:28;;;;;;;0.10;0.10;;;2.40;99.90;;;;;;5037276;28;20083;-81
2023/12/22 02:18:25;;;;;;;0.13;0.13;;;2.30;99.90;;;;;;5053689;28;20025;-81
2023/12/22 02:20:50;;;;;;;0.10;0.10;;;2.20;99.90;;;;;;5057045;28;20021;-81
2023/12/22 02:23:16;;;;;;;0.20;0.20;;;2.10;99.90;;;;;;5055669;28;20048;-80
2023/12/22 02:25:42;;;;;;;0.10;0.10;;;2.10;99.90;;;;;;5054160;28;20033;-81
2023/12/22 02:28:13;;;;;;;0.10;0.10;;;1.90;99.90;;;;;;5038656;28;20056;-82
2023/12/22 02:30:48;;;;;;;;;;;1.90;99.90;;;;;;5055728;28;20028;-82
2023/12/22 02:33:16;;;;;;;0.10;0.10;;;1.80;99.90;;;;;;5055595;28;19950;-82
2023/12/22 02:35:44;;;;;;;0.10;0.10;;;1.80;99.90;;;;;;5054643;28;20029;-81
2023/12/22 02:38:11;;;;;;;0.20;0.20;;;1.70;99.90;;;;;;5055296;28;20032;-82
2023/12/22 02:40:38;;;;;;;0.20;0.20;;;1.60;99.90;;;;;;5054991;28;20166;-82
2023/12/22 02:43:05;;;;;;;0.22;0.22;;;1.50;99.90;;;;;;5055173;28;20048;-81
2023/12/22 02:45:32;;;;;;;0.17;0.17;;;1.50;99.90;;;;;;5056202;28;20032;-82
2023/12/22 02:47:58;;;;;;;0.10;0.10;;;1.50;99.90;;;;;;5054667;28;20033;-82
2023/12/22 02:50:23;;;;;;;0.20;0.20;;;1.40;99.90;;;;;;5053538;28;20029;-82
2023/12/22 02:52:49;;;;;;;0.63;0.47;;;1.30;99.90;;;;;;5054888;28;20473;-82
2023/12/22 02:55:15;;;;;;;0.20;0.20;;;1.30;99.90;;;;;;5070603;28;20104;-82
2023/12/22 02:57:41;;;;;;;0.17;0.17;;;1.20;99.90;;;;;;5054158;28;20029;-83
2023/12/22 03:00:07;;;;;;;0.10;0.10;;;1.20;99.90;;;;;;5054558;28;20393;-82
2023/12/22 03:02:33;;;;;;;0.20;0.20;;;1.20;99.90;;;;;;5037211;28;20086;-82
2023/12/22 03:04:58;;;;;;;0.20;0.20;;;1.20;99.90;;;;;;5054270;28;20021;-83
2023/12/22 03:07:24;;;;;;;0.30;0.30;;;1.20;99.90;;;;;;5033779;28;20040;-82
2023/12/22 03:09:50;;;;;;;0.20;0.20;;;1.10;99.90;;;;;;5050749;28;20064;-83
2023/12/22 03:12:15;;;;;;;0.20;0.20;;;1.10;99.90;;;;;;5050361;28;20030;-83
2023/12/22 03:14:41;;;;;;;0.10;0.10;;;1.20;99.90;;;;;;5052018;28;20478;-83
2023/12/22 03:17:09;;;;;;;0.20;0.20;;;1.20;99.90;;;;;;5021309;28;20191;-82
2023/12/22 03:19:35;;;;;;;0.20;0.20;;;1.20;99.90;;;;;;5070247;28;20025;-83
2023/12/22 03:22:00;;;;;;;2.22;1.00;;;1.20;99.90;;;;;;5036894;28;20509;-83
2023/12/22 03:24:28;;;;;;;1.60;0.80;;;1.20;99.90;;;;;;5069452;28;20465;-83
2023/12/22 03:26:54;;;;;;;0.15;0.15;;;1.20;99.90;;;;;;5054628;28;20393;-83
2023/12/22 03:29:19;;;;;;;0.20;0.20;;;1.20;99.90;;;;;;5037188;28;20029;-83
2023/12/22 03:31:45;;;;;;;0.30;0.30;;;1.20;99.90;;;;;;5054626;28;20083;-83
2023/12/22 03:34:12;;;;;;;0.20;0.20;;;1.30;99.90;;;;;;5052771;28;20029;-82
2023/12/22 03:36:38;;;;;;;0.20;0.20;;;1.20;99.90;;;;;;5054845;28;20032;-83
2023/12/22 03:39:04;;;;;;;0.17;0.17;;;1.30;99.90;;;;;;5036948;28;20025;-83
2023/12/22 03:41:30;;;;;;;0.20;0.20;;;1.30;99.90;;;;;;5054348;28;20036;-82
2023/12/22 03:43:56;;;;;;;0.20;0.20;;;1.30;99.90;;;;;;5052686;28;20033;-83
2023/12/22 03:46:23;;;;;;;0.10;0.10;;;1.20;99.90;;;;;;5036788;28;20040;-82
2023/12/22 03:48:49;;;;;;;0.20;0.20;;;1.20;99.90;;;;;;5053221;28;20033;-83
2023/12/22 03:51:15;;;;;;;0.20;0.20;;;1.20;99.90;;;;;;5054351;28;20025;-83
2023/12/22 03:53:41;;;;;;;0.77;0.50;;;1.10;99.90;;;;;;5052820;28;20087;-83
2023/12/22 03:56:11;;;;;;;0.30;0.30;;;1.10;99.90;;;;;;5052857;28;20112;-83
2023/12/22 03:58:40;;;;;;;0.30;0.30;;;1.10;99.90;;;;;;5054095;28;20027;-83
2023/12/22 04:01:07;;;;;;;0.30;0.30;;;1.10;99.90;;;;;;5036187;28;20025;-83
2023/12/22 04:03:33;;;;;;;0.20;0.20;;;1.10;99.90;;;;;;5052401;28;20079;-83
2023/12/22 04:06:03;;;;;;;0.22;0.22;;;1.10;99.90;;;;;;5053956;28;20074;-83
2023/12/22 04:08:29;;;;;;;0.20;0.20;;;1.10;99.90;;;;;;5052683;28;20455;-83
2023/12/22 04:10:55;;;;;;;0.30;0.25;;;1.10;99.90;;;;;;5053477;28;20029;-83
2023/12/22 04:13:20;;;;;;;0.52;0.35;;;1.10;99.90;;;;;;5035713;28;20036;-83
2023/12/22 04:15:46;;;;;;;1.20;0.63;;;1.00;99.90;;;;;;5036261;28;20025;-83
2023/12/22 04:18:12;;;;;;;0.63;0.43;;;1.00;99.90;;;;;;5052477;28;20068;-83
2023/12/22 04:20:37;;;;;;;0.22;0.22;;;1.00;99.90;;;;;;5052719;28;20025;-83
2023/12/22 04:23:03;;;;;;;0.40;0.30;;;1.00;99.90;;;;;;5051645;28;20123;-84
2023/12/22 04:25:29;;;;;;;1.10;0.63;;;1.00;99.90;;;;;;5053479;28;20075;-84
2023/12/22 04:27:55;;;;;;;1.58;0.63;;;1.00;99.90;;;;;;5036603;28;20033;-85
2023/12/22 04:30:20;;;;;;;1.30;0.60;;;0.90;99.90;;;;;;5035732;28;20087;-85
2023/12/22 04:32:46;;;;;;;1.67;0.98;;;0.90;99.90;;;;;;5051673;28;20460;-84
2023/12/22 04:35:12;;;;;;;0.20;0.20;;;0.90;99.90;;;;;;5052521;28;20028;-85
2023/12/22 04:37:37;;;;;;;0.30;0.30;;;0.90;99.90;;;;;;5035879;28;20029;-82
2023/12/22 04:40:03;;;;;;;0.65;0.40;;;0.90;99.90;;;;;;5053902;28;20029;-82
2023/12/22 04:42:29;;;;;;;2.35;1.70;;;0.90;99.90;;;;;;5035746;28;20477;-82
2023/12/22 04:44:55;;;;;;;5.40;4.00;;;0.80;99.90;;;;;;5035475;28;20067;-83
2023/12/22 04:47:21;;;;;;;3.13;1.88;;;0.90;99.90;;;;;;5053078;28;20029;-83
2023/12/22 04:49:46;;;;;;;2.65;2.45;;;0.90;99.90;;;;;;5069003;28;20025;-83
2023/12/22 04:52:12;;;;;;;2.15;0.60;;;0.90;99.90;;;;;;5069166;28;20079;-84
2023/12/22 04:54:38;;;;;;;0.68;0.40;;;1.00;99.90;;;;;;5051782;28;20029;-83
2023/12/22 04:57:04;;;;;;;0.30;0.30;;;1.20;99.90;;;;;;5053359;28;20074;-83
2023/12/22 04:59:30;;;;;;;0.47;0.25;;;1.30;99.90;;;;;;5053579;28;20167;-84
2023/12/22 05:01:56;;;;;;;1.90;1.00;;;1.40;99.90;;;;;;5035468;28;20033;-84
2023/12/22 05:04:21;;;;;;;3.05;2.20;;;1.50;99.90;;;;;;5034930;28;20037;-83
2023/12/22 05:06:48;;;;;;;22.92;8.43;;;1.60;99.90;;;;;;5035265;28;20127;-83
2023/12/22 05:09:14;;;;;;;6.15;2.70;;;1.60;99.90;;;;;;5053197;28;20033;-84
2023/12/22 05:11:40;;;;;;;6.60;2.22;;;1.60;99.90;;;;;;5051632;28;20036;-83
2023/12/22 05:14:05;;;;;;;9.90;4.50;;;1.70;99.90;;;;;;5037151;28;20025;-84
2023/12/22 05:16:31;;;;;;;8.77;3.97;;;1.70;99.90;;;;;;5039423;28;20025;-82
2023/12/22 05:19:00;;;;;;;1.13;0.50;;;1.70;99.90;;;;;;5039322;28;20091;-84
2023/12/22 05:21:27;;;;;;;2.25;0.60;;;1.70;99.90;;;;;;5056485;28;20021;-84
2023/12/22 05:23:53;;;;;;;39.22;24.00;;;1.60;99.90;;;;;;5056285;28;20029;-83
2023/12/22 05:26:22;;;;;;;19.02;11.82;;;1.60;99.90;;;;;;5055619;28;20044;-83
2023/12/22 05:28:51;;;;;;;7.47;3.58;;;1.60;99.90;;;;;;5057027;28;20017;-84
2023/12/22 05:31:17;;;;;;;7.15;3.03;;;1.50;99.90;;;;;;5057128;28;20029;-84
2023/12/22 05:33:43;;;;;;;4.22;1.40;;;1.50;99.90;;;;;;5051720;28;20036;-84
2023/12/22 05:36:09;;;;;;;3.08;1.65;;;1.50;99.90;;;;;;5054590;28;20028;-84
2023/12/22 05:38:38;;;;;;;4.35;2.00;;;1.50;99.90;;;;;;5055441;28;20477;-84
2023/12/22 05:41:06;;;;;;;10.30;3.63;;;1.50;99.90;;;;;;5055054;28;20029;-83
2023/12/22 05:43:33;;;;;;;1.25;0.60;;;1.60;99.90;;;;;;5036336;28;20044;-84
2023/12/22 05:45:59;;;;;;;3.08;0.55;;;1.70;99.90;;;;;;5050330;28;20067;-83
2023/12/22 05:48:25;;;;;;;2.45;0.52;;;1.80;99.90;;;;;;5052376;28;20040;-84
2023/12/22 05:50:51;;;;;;;2.85;1.13;;;1.90;99.90;;;;;;5054774;28;20512;-83
2023/12/22 05:53:16;;;;;;;1.88;0.70;;;2.00;99.90;;;;;;5056504;28;20069;-82
2023/12/22 05:55:42;;;;;;;5.07;2.70;;;1.90;99.90;;;;;;5055209;28;20021;-83
2023/12/22 05:58:08;;;;;;;2.20;1.23;;;1.80;99.90;;;;;;5055036;28;20079;-83
2023/12/22 06:00:35;;;;;;;4.53;1.70;;;1.80;99.90;;;;;;5055013;28;20033;-84
2023/12/22 06:03:01;;;;;;;1.63;0.85;;;1.80;99.90;;;;;;5054998;28;20119;-84
2023/12/22 06:05:30;;;;;;;4.03;1.67;;;1.80;99.90;;;;;;5054921;28;20037;-83
2023/12/22 06:07:55;;;;;;;2.90;1.15;;;1.80;99.90;;;;;;5071386;28;20393;-83
2023/12/22 06:10:21;;;;;;;3.20;1.40;;;1.80;99.90;;;;;;5071681;28;20036;-83
2023/12/22 06:12:47;;;;;;;4.55;1.25;;;1.90;99.90;;;;;;5055330;28;20063;-84
2023/12/22 06:15:12;;;;;;;2.60;1.05;;;1.90;99.90;;;;;;5055993;28;20033;-83
2023/12/22 06:17:38;;;;;;;2.53;1.27;;;1.90;99.90;;;;;;5054889;28;20478;-83
2023/12/22 06:20:04;;;;;;;3.53;1.30;;;1.90;99.90;;;;;;5055050;28;20037;-83
2023/12/22 06:22:30;;;;;;;2.78;0.90;;;1.90;99.90;;;;;;5071579;28;20033;-83
2023/12/22 06:24:55;;;;;;;1.30;0.50;;;2.10;99.90;;;;;;5054836;28;20119;-83
2023/12/22 06:27:21;;;;;;;1.88;0.50;;;2.20;99.90;;;;;;5054661;28;20108;-83
2023/12/22 06:29:47;;;;;;;0.70;0.50;;;2.10;99.90;;;;;;5058126;28;20025;-84
2023/12/22 06:32:12;;;;;;;3.13;0.80;;;2.10;99.90;;;;;;5057632;28;20091;-84
2023/12/22 06:34:38;;;;;;;4.70;0.90;;;2.10;99.90;;;;;;5056737;28;20029;-83
2023/12/22 06:37:04;;;;;;;2.95;1.00;;;2.10;99.90;;;;;;5072666;28;20169;-83
2023/12/22 06:39:31;;;;;;;1.35;0.70;;;2.00;99.90;;;;;;5058314;28;20040;-83
2023/12/22 06:41:56;;;;;;;1.95;1.17;;;2.10;99.90;;;;;;5055798;28;20033;-82
2023/12/22 06:44:22;;;;;;;2.58;1.23;;;2.10;99.90;;;;;;5054811;28;20029;-83
2023/12/22 06:46:48;;;;;;;2.25;1.00;;;2.10;99.90;;;;;;5055295;28;20555;-83
2023/12/22 06:49:14;;;;;;;7.40;1.70;;;2.10;99.90;;;;;;5054486;28;20444;-82
2023/12/22 06:51:40;;;;;;;2.22;1.10;;;2.00;99.90;;;;;;5071201;28;20025;-82
2023/12/22 06:54:06;;;;;;;3.40;1.23;;;2.00;99.90;;;;;;5071322;28;20044;-82
2023/12/22 06:56:34;;;;;;;5.60;2.47;;;1.90;99.90;;;;;;5070928;28;20079;-82
2023/12/22 06:58:59;;;;;;;4.50;1.90;;;1.90;99.90;;;;;;5054315;28;20079;-82
2023/12/22 07:01:31;;;;;;;7.28;3.60;;;1.90;99.90;;;;;;5054928;28;20033;-83
2023/12/22 07:04:00;;;;;;;5.70;1.92;;;1.90;99.90;;;;;;5055796;28;20033;-83
2023/12/22 07:06:28;;;;;;;4.07;2.00;;;1.90;99.90;;;;;;5070643;28;20120;-82
2023/12/22 07:09:11;;;;;;;1.85;1.27;;;1.80;99.90;;;;;;5060287;28;20017;-83
2023/12/22 07:11:42;;;;;;;1.70;1.10;;;1.90;99.90;;;;;;5056562;28;20025;-82
2023/12/22 07:14:08;;;;;;;1.30;0.90;;;1.90;99.90;;;;;;5054141;28;20045;-82
2023/12/22 07:16:36;;;;;;;1.40;0.90;;;2.00;99.90;;;;;;5055587;28;20477;-82
2023/12/22 07:19:03;;;;;;;1.88;1.05;;;2.00;99.90;;;;;;5055472;28;20117;-82
2023/12/22 07:21:29;;;;;;;1.52;1.00;;;2.00;99.90;;;;;;5055756;28;20068;-82
2023/12/22 07:23:54;;;;;;;1.70;1.30;;;2.10;99.90;;;;;;5054046;28;20045;-81
2023/12/22 07:26:24;;;;;;;2.60;1.67;;;2.00;99.90;;;;;;5070391;28;20036;-81
2023/12/22 07:28:50;;;;;;;2.88;1.80;;;2.00;99.90;;;;;;5070011;28;20033;-82
2023/12/22 07:31:16;;;;;;;4.55;1.63;;;2.00;99.90;;;;;;5053702;28;20037;-82
2023/12/22 07:33:42;;;;;;;1.42;0.90;;;2.00;99.90;;;;;;5037074;28;20025;-82
2023/12/22 07:36:07;;;;;;;1.65;0.98;;;2.00;99.90;;;;;;5070165;28;20428;-83
2023/12/22 07:38:33;;;;;;;3.97;2.08;;;2.00;99.90;;;;;;5053458;28;20025;-83
2023/12/22 07:40:59;;;;;;;4.22;1.65;;;2.00;99.90;;;;;;5070164;28;20087;-83
2023/12/22 07:43:25;;;;;;;8.52;3.45;;;2.00;99.90;;;;;;5052846;28;20028;-83
2023/12/22 07:45:51;;;;;;;2.70;0.55;;;2.00;99.90;;;;;;5053120;28;20040;-83
2023/12/22 07:48:20;;;;;;;4.18;3.03;;;2.10;99.90;;;;;;5055952;28;20025;-83
2023/12/22 07:50:45;;;;;;;3.88;1.08;;;2.20;99.90;;;;;;5052882;28;20033;-83
2023/12/22 07:53:11;;;;;;;2.05;0.90;;;2.30;99.90;;;;;;5052990;28;20539;-83
2023/12/22 07:55:38;;;;;;;1.58;0.82;;;2.40;99.90;;;;;;5032987;28;20068;-83
2023/12/22 07:58:05;;;;;;;3.03;1.10;;;2.50;99.90;;;;;;5032468;28;20037;-83
2023/12/22 08:00:31;;;;;;;0.98;0.60;;;2.50;99.90;;;;;;5034185;28;20482;-83
2023/12/22 08:02:56;;;;;;;1.98;0.60;;;2.60;99.90;;;;;;5033555;28;20425;-83
2023/12/22 08:05:22;;;;;;;1.63;0.60;;;2.50;99.90;;;;;;5034459;28;20029;-83
2023/12/22 08:07:48;;;;;;;3.60;0.90;;;2.50;99.90;;;;;;5016340;28;20037;-83
2023/12/22 08:10:13;;;;;;;3.67;0.80;;;2.50;99.90;;;;;;5016290;28;20034;-84
2023/12/22 08:12:39;;;;;;;4.15;0.80;;;2.50;99.90;;;;;;5015967;28;20398;-84
2023/12/22 08:15:05;;;;;;;1.52;0.60;;;2.40;99.90;;;;;;5032526;28;20500;-83
2023/12/22 08:17:31;;;;;;;2.20;0.82;;;2.40;99.90;;;;;;5035916;28;20021;-84
2023/12/22 08:19:57;;;;;;;1.52;0.80;;;2.40;99.90;;;;;;5069486;28;20411;-84
2023/12/22 08:22:23;;;;;;;3.47;0.60;;;2.40;99.90;;;;;;5035865;28;20037;-84
2023/12/22 08:24:49;;;;;;;3.40;1.35;;;2.40;99.90;;;;;;5052280;28;20033;-84
2023/12/22 08:27:15;;;;;;;7.88;3.05;;;2.40;99.90;;;;;;5035214;28;20037;-84
2023/12/22 08:29:40;;;;;;;2.65;1.10;;;2.30;99.90;;;;;;5052230;28;20064;-84
2023/12/22 08:32:06;;;;;;;1.55;0.60;;;2.40;99.90;;;;;;5052226;28;20061;-84
2023/12/22 08:34:32;;;;;;;0.93;0.43;;;2.50;99.90;;;;;;5052415;28;20025;-83
2023/12/22 08:36:58;;;;;;;2.78;1.20;;;2.60;99.90;;;;;;5052192;28;20027;-83
2023/12/22 08:39:26;;;;;;;2.60;1.00;;;2.50;99.90;;;;;;5052099;28;20163;-84
2023/12/22 08:41:53;;;;;;;4.18;2.28;;;2.50;99.90;;;;;;5052093;28;20393;-83
2023/12/22 08:44:19;;;;;;;3.13;1.20;;;2.50;99.90;;;;;;5052336;28;20021;-83
2023/12/22 08:46:44;;;;;;;2.20;0.38;;;2.50;99.90;;;;;;5052213;28;20032;-83
2023/12/22 08:49:11;;;;;;;5.28;2.38;;;2.40;99.90;;;;;;5052362;28;20044;-83
2023/12/22 08:51:36;;;;;;;3.20;1.65;;;2.50;99.90;;;;;;5053257;28;20115;-83
2023/12/22 08:54:04;;;;;;;3.15;1.83;;;2.50;99.90;;;;;;5053270;28;20127;-84
2023/12/22 08:56:29;;;;;;;23.08;12.52;;;2.50;99.90;;;;;;5051646;28;20028;-84
2023/12/22 08:58:58;;;;;;;4.07;2.00;;;2.40;99.90;;;;;;5037614;28;20029;-86
2023/12/22 09:01:24;;;;;;;1.67;0.70;;;2.40;99.90;;;;;;5055788;28;20047;-84
2023/12/22 09:03:50;;;;;;;3.03;1.00;;;2.40;99.90;;;;;;5053275;28;20033;-83
2023/12/22 09:06:20;;;;;;;2.88;1.48;;;2.40;99.90;;;;;;5068649;28;20033;-84
2023/12/22 09:08:47;;;;;;;0.98;0.40;;;2.50;99.90;;;;;;5051976;28;20116;-84
2023/12/22 09:11:14;;;;;;;1.33;0.32;;;2.70;99.90;;;;;;5053190;28;20048;-83
2023/12/22 09:13:41;;;;;;;2.20;1.05;;;2.80;99.90;;;;;;5052751;28;20032;-83
2023/12/22 09:16:07;;;;;;;1.40;0.52;;;2.90;99.90;;;;;;5051876;28;20400;-84
2023/12/22 09:18:33;;;;;;;0.85;0.38;;;2.90;99.90;;;;;;5051783;28;20108;-83
2023/12/22 09:20:59;;;;;;;1.05;0.55;;;2.80;99.90;;;;;;5051893;28;20112;-84
2023/12/22 09:23:25;;;;;;;0.80;0.50;;;2.80;99.90;;;;;;5051715;28;20072;-83
2023/12/22 09:25:51;;;;;;;3.20;1.70;;;2.70;99.90;;;;;;5051913;28;20036;-84
2023/12/22 09:28:16;;;;;;;2.83;1.40;;;2.70;99.90;;;;;;5068094;28;20055;-83
2023/12/22 09:30:42;;;;;;;2.53;1.27;;;2.70;99.90;;;;;;5068352;28;20029;-84
2023/12/22 09:33:09;;;;;;;2.20;1.20;;;2.70;99.90;;;;;;5051740;28;20040;-84
2023/12/22 09:35:35;;;;;;;2.33;1.20;;;2.60;99.90;;;;;;5053000;28;20104;-84
2023/12/22 09:38:01;;;;;;;1.83;0.85;;;2.60;99.90;;;;;;5051556;28;20116;-83
2023/12/22 09:40:27;;;;;;;1.23;0.65;;;2.60;99.90;;;;;;5051842;28;20067;-84
2023/12/22 09:42:57;;;;;;;3.50;1.10;;;2.60;99.90;;;;;;5067993;28;20036;-83
2023/12/22 09:45:23;;;;;;;2.10;0.80;;;2.70;99.90;;;;;;5052831;28;20488;-84
2023/12/22 09:47:51;;;;;;;1.83;1.10;;;2.90;99.90;;;;;;5051509;28;20032;-84
2023/12/22 09:50:17;;;;;;;6.32;2.90;;;2.90;99.90;;;;;;5054008;28;20029;-85
2023/12/22 09:52:46;;;;;;;2.28;1.40;;;2.90;99.90;;;;;;5051475;28;20048;-85
2023/12/22 09:55:15;;;;;;;3.60;1.80;;;2.90;99.90;;;;;;5051501;28;20017;-85
2023/12/22 09:57:42;;;;;;;7.53;4.05;;;2.90;99.90;;;;;;5052403;28;20428;-85
2023/12/22 10:00:12;;;;;;;4.38;1.70;;;2.80;99.90;;;;;;5053812;28;20496;-85
2023/12/22 10:02:39;;;;;;;2.78;1.08;;;2.80;99.90;;;;;;5055138;28;20078;-85
2023/12/22 10:05:06;;;;;;;4.50;1.60;;;2.70;99.90;;;;;;5055086;28;20040;-85
2023/12/22 10:07:33;;;;;;;7.03;1.42;;;2.80;99.90;;;;;;5071830;28;20025;-84
2023/12/22 10:10:00;;;;;;;1.02;0.60;;;2.80;99.90;;;;;;5054888;28;20116;-85
2023/12/22 10:12:30;;;;;;;1.98;0.73;;;2.90;99.90;;;;;;5054980;28;20062;-85
2023/12/22 10:14:58;;;;;;;3.22;1.17;;;3.00;99.90;;;;;;5056166;28;20078;-85
2023/12/22 10:17:25;;;;;;;2.28;0.93;;;3.00;99.90;;;;;;5054921;28;20021;-84
2023/12/22 10:19:50;;;;;;;4.50;0.98;;;3.00;99.90;;;;;;5054963;28;20029;-85
2023/12/22 10:22:17;;;;;;;1.88;0.70;;;3.00;99.90;;;;;;5054758;28;20048;-84
2023/12/22 10:24:47;;;;;;;2.88;0.93;;;2.90;99.90;;;;;;5071726;28;20025;-85
2023/12/22 10:27:14;;;;;;;4.73;1.80;;;3.00;99.90;;;;;;5054271;28;20025;-84
2023/12/22 10:29:41;;;;;;;1.42;0.70;;;2.90;99.90;;;;;;5054837;28;20112;-84
2023/12/22 10:32:08;;;;;;;2.47;0.60;;;2.80;99.90;;;;;;5054411;28;20478;-84
2023/12/22 10:34:34;;;;;;;3.35;0.60;;;2.80;99.90;;;;;;5054486;28;20021;-83
2023/12/22 10:37:00;;;;;;;1.75;0.60;;;2.80;99.90;;;;;;5054452;28;20027;-84
2023/12/22 10:39:30;;;;;;;1.60;0.63;;;2.80;99.90;;;;;;5055642;28;20049;-83
2023/12/22 10:41:57;;;;;;;3.40;0.60;;;2.80;99.90;;;;;;5054025;28;20063;-83
2023/12/22 10:44:27;;;;;;;1.27;0.50;;;2.70;99.90;;;;;;5056215;28;20108;-83
2023/12/22 10:46:55;;;;;;;5.68;1.30;;;2.70;99.90;;;;;;5055512;28;20036;-83
2023/12/22 10:49:22;;;;;;;1.38;0.65;;;2.70;99.90;;;;;;5070615;28;20060;-83
2023/12/22 10:51:49;;;;;;;2.63;0.80;;;2.70;99.90;;;;;;5037812;28;20025;-83
2023/12/22 10:54:15;;;;;;;2.13;0.63;;;2.60;99.90;;;;;;5054211;28;20040;-83
2023/12/22 10:56:41;;;;;;;1.67;0.60;;;2.60;99.90;;;;;;5053873;28;20021;-82
2023/12/22 10:59:08;;;;;;;2.85;0.60;;;2.60;99.90;;;;;;5054137;28;20025;-83
2023/12/22 11:01:38;;;;;;;2.13;0.35;;;2.60;99.90;;;;;;5037617;28;20404;-83
2023/12/22 11:04:13;;;;;;;1.33;0.50;;;2.60;99.90;;;;;;5054430;28;20025;-83
2023/12/22 11:06:41;;;;;;;4.35;2.42;;;2.60;99.90;;;;;;5054253;28;20047;-84
2023/12/22 11:09:10;;;;;;;4.65;2.65;;;2.50;99.90;;;;;;5053890;28;20036;-83
2023/12/22 11:11:39;;;;;;;2.47;0.95;;;2.40;99.90;;;;;;5052871;28;20036;-82
2023/12/22 11:14:07;;;;;;;5.78;3.67;;;2.40;99.90;;;;;;5055070;28;20028;-83
2023/12/22 11:16:34;;;;;;;7.72;4.18;;;2.40;99.90;;;;;;5055792;28;20079;-83
2023/12/22 11:19:01;;;;;;;1.45;0.75;;;2.30;99.90;;;;;;5054224;28;20071;-83
2023/12/22 11:21:28;;;;;;;6.03;2.72;;;2.30;99.90;;;;;;5070659;28;20370;-83
2023/12/22 11:23:55;;;;;;;6.72;3.13;;;2.30;99.90;;;;;;5070472;28;20040;-82
2023/12/22 11:26:22;;;;;;;4.95;2.45;;;2.30;99.90;;;;;;5055078;28;20032;-83
2023/12/22 11:28:52;;;;;;;2.78;1.30;;;2.20;99.90;;;;;;5036927;28;20044;-83
2023/12/22 11:31:21;;;;;;;3.38;1.50;;;2.10;99.90;;;;;;5053870;28;20029;-83
2023/12/22 11:33:49;;;;;;;2.95;1.40;;;2.10;99.90;;;;;;5054883;28;20052;-83
2023/12/22 11:36:17;;;;;;;2.33;1.38;;;2.00;99.90;;;;;;5055189;28;20111;-83
2023/12/22 11:38:45;;;;;;;3.00;1.63;;;2.10;99.90;;;;;;5054963;28;20445;-83
2023/12/22 11:41:17;;;;;;;1.40;0.60;;;2.20;99.90;;;;;;5053366;28;20028;-83
2023/12/22 11:43:43;;;;;;;;;;;2.10;99.90;;;;;;5053451;28;20401;-83
2023/12/22 11:46:09;;;;;;;0.30;0.30;;;2.10;99.90;;;;;;5054507;28;19911;-83
2023/12/22 11:48:35;;;;;;;1.27;0.35;;;2.00;99.90;;;;;;5053068;28;20036;-82
2023/12/22 11:51:01;;;;;;;2.20;1.50;;;2.00;99.90;;;;;;5070135;28;20397;-83
2023/12/22 11:53:32;;;;;;;2.85;1.23;;;2.10;99.90;;;;;;5054592;28;20021;-83
2023/12/22 11:56:08;;;;;;;0.75;0.43;;;2.10;99.90;;;;;;5053052;28;20023;-84
2023/12/22 11:58:38;;;;;;;2.72;1.50;;;2.10;99.90;;;;;;5052524;28;20501;-83
2023/12/22 12:01:13;;;;;;;6.20;3.90;;;2.00;99.90;;;;;;5054376;28;20485;-84
2023/12/22 12:03:47;;;;;;;6.07;2.60;;;1.90;99.90;;;;;;5052768;28;20039;-84
2023/12/22 12:06:13;;;;;;;6.53;3.45;;;1.90;99.90;;;;;;5052810;28;20060;-84
2023/12/22 12:08:39;;;;;;;6.78;3.47;;;1.80;99.90;;;;;;5053841;28;20060;-84
2023/12/22 12:11:06;;;;;;;4.57;2.47;;;1.80;99.90;;;;;;5052488;28;20512;-84
2023/12/22 12:13:36;;;;;;;7.32;2.88;;;1.80;99.90;;;;;;5068647;28;20021;-83
2023/12/22 12:16:02;;;;;;;7.68;2.45;;;1.80;99.90;;;;;;5052532;28;20024;-83
2023/12/22 12:18:29;;;;;;;6.00;1.80;;;1.80;99.90;;;;;;5052676;28;20112;-83
2023/12/22 12:20:55;;;;;;;4.57;1.63;;;2.00;99.90;;;;;;5052430;28;20082;-84
2023/12/22 12:23:24;;;;;;;5.97;2.72;;;2.10;99.90;;;;;;5052431;28;20481;-83
2023/12/22 12:25:50;;;;;;;7.93;3.50;;;2.10;99.90;;;;;;5052383;28;20029;-84
2023/12/22 12:28:19;;;;;;;8.40;3.90;;;2.10;99.90;;;;;;5052082;28;20115;-84
2023/12/22 12:30:47;;;;;;;6.45;2.00;;;2.10;99.90;;;;;;5053261;28;20033;-84
2023/12/22 12:33:13;;;;;;;5.60;1.98;;;2.10;99.90;;;;;;5053703;28;20466;-84
2023/12/22 12:35:40;;;;;;;7.72;4.47;;;2.20;99.90;;;;;;5055709;28;20473;-84
2023/12/22 12:38:05;;;;;;;10.68;4.35;;;2.20;99.90;;;;;;5055338;28;20120;-84
2023/12/22 12:40:35;;;;;;;7.50;3.80;;;2.30;99.90;;;;;;5053925;28;20057;-84
2023/12/22 12:43:02;;;;;;;6.65;2.88;;;2.30;99.90;;;;;;5052007;28;20029;-84
2023/12/22 12:45:27;;;;;;;5.15;2.33;;;2.30;99.90;;;;;;5076471;28;20509;-84
2023/12/22 12:48:01;;;;;;;1.73;0.95;;;2.30;99.90;;;;;;5054501;28;20033;-84
2023/12/22 12:50:28;;;;;;;2.78;0.77;;;2.30;99.90;;;;;;5052029;28;20025;-84
2023/12/22 12:52:55;;;;;;;3.63;1.52;;;2.40;99.90;;;;;;5069462;28;20025;-84
2023/12/22 12:55:22;;;;;;;3.67;1.25;;;2.40;99.90;;;;;;5052066;28;20048;-84